sensor_id;sensor_type;location;lat;lon;timestamp;temperature;humidity
19110;DHT22;9687;50.836;12.060;2024-02-21T00:00:27;10.90;77.20
19110;DHT22;9687;50.836;12.060;2024-02-21T00:02:55;10.90;77.20
19110;DHT22;9687;50.836;12.060;2024-02-21T00:05:27;10.90;77.20
19110;DHT22;9687;50.836;12.060;2024-02-21T00:07:55;10.90;77.20
19110;DHT22;9687;50.836;12.060;2024-02-21T00:10:23;11.00;77.40
19110;DHT22;9687;50.836;12.060;2024-02-21T00:12:52;10.90;77.40
19110;DHT22;9687;50.836;12.060;2024-02-21T00:15:20;10.90;77.40
19110;DHT22;9687;50.836;12.060;2024-02-21T00:17:47;11.00;77.40
19110;DHT22;9687;50.836;12.060;2024-02-21T00:20:14;10.90;77.30
19110;DHT22;9687;50.836;12.060;2024-02-21T00:22:42;11.00;77.40
19110;DHT22;9687;50.836;12.060;2024-02-21T00:25:10;10.80;77.20
19110;DHT22;9687;50.836;12.060;2024-02-21T00:27:37;10.90;77.30
19110;DHT22;9687;50.836;12.060;2024-02-21T00:30:07;11.00;77.40
19110;DHT22;9687;50.836;12.060;2024-02-21T00:32:35;10.90;77.30
19110;DHT22;9687;50.836;12.060;2024-02-21T00:35:04;10.90;77.30
19110;DHT22;9687;50.836;12.060;2024-02-21T00:37:32;10.90;77.40
19110;DHT22;9687;50.836;12.060;2024-02-21T00:39:59;10.90;77.40
19110;DHT22;9687;50.836;12.060;2024-02-21T00:42:27;10.90;77.40
19110;DHT22;9687;50.836;12.060;2024-02-21T00:44:54;10.90;77.40
19110;DHT22;9687;50.836;12.060;2024-02-21T00:47:23;10.90;77.40
19110;DHT22;9687;50.836;12.060;2024-02-21T00:49:50;10.90;77.50
19110;DHT22;9687;50.836;12.060;2024-02-21T00:52:18;10.90;77.50
19110;DHT22;9687;50.836;12.060;2024-02-21T00:54:46;10.90;77.50
19110;DHT22;9687;50.836;12.060;2024-02-21T00:57:15;10.90;77.60
19110;DHT22;9687;50.836;12.060;2024-02-21T00:59:42;10.90;77.60
19110;DHT22;9687;50.836;12.060;2024-02-21T01:02:09;10.90;77.60
19110;DHT22;9687;50.836;12.060;2024-02-21T01:04:38;11.00;77.60
19110;DHT22;9687;50.836;12.060;2024-02-21T01:07:07;11.00;77.60
19110;DHT22;9687;50.836;12.060;2024-02-21T01:09:36;11.00;77.60
19110;DHT22;9687;50.836;12.060;2024-02-21T01:12:04;11.00;77.60
19110;DHT22;9687;50.836;12.060;2024-02-21T01:14:31;11.00;77.60
19110;DHT22;9687;50.836;12.060;2024-02-21T01:17:01;11.00;77.60
19110;DHT22;9687;50.836;12.060;2024-02-21T01:19:29;11.00;77.60
19110;DHT22;9687;50.836;12.060;2024-02-21T01:22:00;11.00;77.50
19110;DHT22;9687;50.836;12.060;2024-02-21T01:24:29;11.10;77.60
19110;DHT22;9687;50.836;12.060;2024-02-21T01:26:57;11.10;77.60
19110;DHT22;9687;50.836;12.060;2024-02-21T01:29:25;11.10;77.50
19110;DHT22;9687;50.836;12.060;2024-02-21T01:31:52;11.10;77.50
19110;DHT22;9687;50.836;12.060;2024-02-21T01:34:19;11.10;77.50
19110;DHT22;9687;50.836;12.060;2024-02-21T01:36:48;11.10;77.50
19110;DHT22;9687;50.836;12.060;2024-02-21T01:39:18;11.00;77.40
19110;DHT22;9687;50.836;12.060;2024-02-21T01:41:46;11.00;77.50
19110;DHT22;9687;50.836;12.060;2024-02-21T01:44:14;11.00;77.50
19110;DHT22;9687;50.836;12.060;2024-02-21T01:46:41;11.00;77.60
19110;DHT22;9687;50.836;12.060;2024-02-21T01:49:10;10.90;77.50
19110;DHT22;9687;50.836;12.060;2024-02-21T01:51:37;10.90;77.60
19110;DHT22;9687;50.836;12.060;2024-02-21T01:54:08;11.00;77.80
19110;DHT22;9687;50.836;12.060;2024-02-21T01:56:39;10.90;77.80
19110;DHT22;9687;50.836;12.060;2024-02-21T01:59:07;10.90;77.80
19110;DHT22;9687;50.836;12.060;2024-02-21T02:01:35;10.90;77.90
19110;DHT22;9687;50.836;12.060;2024-02-21T02:04:03;10.90;77.90
19110;DHT22;9687;50.836;12.060;2024-02-21T02:06:32;10.90;77.90
19110;DHT22;9687;50.836;12.060;2024-02-21T02:09:00;10.90;77.90
19110;DHT22;9687;50.836;12.060;2024-02-21T02:11:27;10.90;77.90
19110;DHT22;9687;50.836;12.060;2024-02-21T02:13:56;10.90;78.00
19110;DHT22;9687;50.836;12.060;2024-02-21T02:16:25;10.80;78.10
19110;DHT22;9687;50.836;12.060;2024-02-21T02:18:53;10.80;78.10
19110;DHT22;9687;50.836;12.060;2024-02-21T02:21:24;10.80;78.10
19110;DHT22;9687;50.836;12.060;2024-02-21T02:23:54;10.90;78.20
19110;DHT22;9687;50.836;12.060;2024-02-21T02:26:21;10.90;78.20
19110;DHT22;9687;50.836;12.060;2024-02-21T02:28:49;10.90;78.20
19110;DHT22;9687;50.836;12.060;2024-02-21T02:31:18;10.90;78.20
19110;DHT22;9687;50.836;12.060;2024-02-21T02:33:45;10.90;78.20
19110;DHT22;9687;50.836;12.060;2024-02-21T02:36:14;10.90;78.10
19110;DHT22;9687;50.836;12.060;2024-02-21T02:38:41;10.90;78.10
19110;DHT22;9687;50.836;12.060;2024-02-21T02:41:11;10.90;78.10
19110;DHT22;9687;50.836;12.060;2024-02-21T02:43:39;10.90;78.10
19110;DHT22;9687;50.836;12.060;2024-02-21T02:46:06;10.90;78.10
19110;DHT22;9687;50.836;12.060;2024-02-21T02:48:43;10.90;78.20
19110;DHT22;9687;50.836;12.060;2024-02-21T02:51:11;10.90;78.20
19110;DHT22;9687;50.836;12.060;2024-02-21T02:53:38;11.00;78.30
19110;DHT22;9687;50.836;12.060;2024-02-21T02:56:05;10.80;78.10
19110;DHT22;9687;50.836;12.060;2024-02-21T02:58:35;10.90;78.20
19110;DHT22;9687;50.836;12.060;2024-02-21T03:01:02;10.90;78.20
19110;DHT22;9687;50.836;12.060;2024-02-21T03:03:30;10.90;78.20
19110;DHT22;9687;50.836;12.060;2024-02-21T03:05:57;10.90;78.20
19110;DHT22;9687;50.836;12.060;2024-02-21T03:08:25;10.90;78.20
19110;DHT22;9687;50.836;12.060;2024-02-21T03:10:54;10.90;78.20
19110;DHT22;9687;50.836;12.060;2024-02-21T03:13:22;10.90;78.30
19110;DHT22;9687;50.836;12.060;2024-02-21T03:15:52;10.90;78.40
19110;DHT22;9687;50.836;12.060;2024-02-21T03:18:19;10.90;78.40
19110;DHT22;9687;50.836;12.060;2024-02-21T03:20:47;10.90;78.40
19110;DHT22;9687;50.836;12.060;2024-02-21T03:23:14;10.90;78.40
19110;DHT22;9687;50.836;12.060;2024-02-21T03:25:43;10.90;78.50
19110;DHT22;9687;50.836;12.060;2024-02-21T03:28:11;10.90;78.50
19110;DHT22;9687;50.836;12.060;2024-02-21T03:30:39;10.90;78.50
19110;DHT22;9687;50.836;12.060;2024-02-21T03:33:07;10.90;78.60
19110;DHT22;9687;50.836;12.060;2024-02-21T03:35:34;10.90;78.60
19110;DHT22;9687;50.836;12.060;2024-02-21T03:38:03;10.90;78.70
19110;DHT22;9687;50.836;12.060;2024-02-21T03:40:31;10.90;78.80
19110;DHT22;9687;50.836;12.060;2024-02-21T03:43:00;10.90;78.90
19110;DHT22;9687;50.836;12.060;2024-02-21T03:45:27;10.90;79.10
19110;DHT22;9687;50.836;12.060;2024-02-21T03:47:56;10.90;79.10
19110;DHT22;9687;50.836;12.060;2024-02-21T03:50:27;10.80;79.20
19110;DHT22;9687;50.836;12.060;2024-02-21T03:52:55;10.80;79.40
19110;DHT22;9687;50.836;12.060;2024-02-21T03:55:24;10.80;79.50
19110;DHT22;9687;50.836;12.060;2024-02-21T03:57:52;10.80;79.60
19110;DHT22;9687;50.836;12.060;2024-02-21T04:00:20;10.80;79.70
19110;DHT22;9687;50.836;12.060;2024-02-21T04:02:48;10.80;79.70
19110;DHT22;9687;50.836;12.060;2024-02-21T04:05:17;10.80;79.80
19110;DHT22;9687;50.836;12.060;2024-02-21T04:07:47;10.80;79.90
19110;DHT22;9687;50.836;12.060;2024-02-21T04:10:17;10.80;80.00
19110;DHT22;9687;50.836;12.060;2024-02-21T04:12:46;10.70;80.10
19110;DHT22;9687;50.836;12.060;2024-02-21T04:15:16;10.70;80.20
19110;DHT22;9687;50.836;12.060;2024-02-21T04:17:45;10.70;80.40
19110;DHT22;9687;50.836;12.060;2024-02-21T04:20:14;10.70;80.50
19110;DHT22;9687;50.836;12.060;2024-02-21T04:22:42;10.60;80.70
19110;DHT22;9687;50.836;12.060;2024-02-21T04:25:12;10.60;80.80
19110;DHT22;9687;50.836;12.060;2024-02-21T04:27:41;10.50;80.90
19110;DHT22;9687;50.836;12.060;2024-02-21T04:30:10;10.50;81.10
19110;DHT22;9687;50.836;12.060;2024-02-21T04:32:39;10.30;81.00
19110;DHT22;9687;50.836;12.060;2024-02-21T04:35:07;10.40;81.30
19110;DHT22;9687;50.836;12.060;2024-02-21T04:37:34;10.40;81.30
19110;DHT22;9687;50.836;12.060;2024-02-21T04:40:02;10.40;81.30
19110;DHT22;9687;50.836;12.060;2024-02-21T04:42:33;10.30;81.90
19110;DHT22;9687;50.836;12.060;2024-02-21T04:45:01;10.30;82.20
19110;DHT22;9687;50.836;12.060;2024-02-21T04:47:29;10.20;82.40
19110;DHT22;9687;50.836;12.060;2024-02-21T04:49:58;10.20;82.70
19110;DHT22;9687;50.836;12.060;2024-02-21T04:52:26;10.10;83.00
19110;DHT22;9687;50.836;12.060;2024-02-21T04:54:53;10.00;83.10
19110;DHT22;9687;50.836;12.060;2024-02-21T04:57:21;10.00;83.20
19110;DHT22;9687;50.836;12.060;2024-02-21T04:59:52;10.00;83.40
19110;DHT22;9687;50.836;12.060;2024-02-21T05:02:19;10.00;83.70
19110;DHT22;9687;50.836;12.060;2024-02-21T05:04:50;10.00;83.70
19110;DHT22;9687;50.836;12.060;2024-02-21T05:07:18;10.00;83.90
19110;DHT22;9687;50.836;12.060;2024-02-21T05:09:47;10.00;83.90
19110;DHT22;9687;50.836;12.060;2024-02-21T05:12:15;10.00;84.00
19110;DHT22;9687;50.836;12.060;2024-02-21T05:14:43;10.00;84.00
19110;DHT22;9687;50.836;12.060;2024-02-21T05:17:14;10.00;84.10
19110;DHT22;9687;50.836;12.060;2024-02-21T05:19:42;10.00;84.10
19110;DHT22;9687;50.836;12.060;2024-02-21T05:22:09;10.00;84.10
19110;DHT22;9687;50.836;12.060;2024-02-21T05:24:38;10.00;84.10
19110;DHT22;9687;50.836;12.060;2024-02-21T05:27:07;10.00;84.20
19110;DHT22;9687;50.836;12.060;2024-02-21T05:29:36;9.90;85.60
19110;DHT22;9687;50.836;12.060;2024-02-21T05:32:05;9.90;85.60
19110;DHT22;9687;50.836;12.060;2024-02-21T05:34:34;9.90;85.70
19110;DHT22;9687;50.836;12.060;2024-02-21T05:37:03;9.90;85.80
19110;DHT22;9687;50.836;12.060;2024-02-21T05:39:33;9.90;85.70
19110;DHT22;9687;50.836;12.060;2024-02-21T05:42:01;9.90;85.60
19110;DHT22;9687;50.836;12.060;2024-02-21T05:44:29;10.00;84.50
19110;DHT22;9687;50.836;12.060;2024-02-21T05:46:57;9.90;85.60
19110;DHT22;9687;50.836;12.060;2024-02-21T05:49:25;9.90;85.50
19110;DHT22;9687;50.836;12.060;2024-02-21T05:51:55;10.00;84.40
19110;DHT22;9687;50.836;12.060;2024-02-21T05:54:23;9.90;85.40
19110;DHT22;9687;50.836;12.060;2024-02-21T05:56:51;10.00;84.40
19110;DHT22;9687;50.836;12.060;2024-02-21T05:59:20;10.00;84.50
19110;DHT22;9687;50.836;12.060;2024-02-21T06:01:54;10.00;84.50
19110;DHT22;9687;50.836;12.060;2024-02-21T06:04:22;10.00;84.40
19110;DHT22;9687;50.836;12.060;2024-02-21T06:06:50;9.80;85.30
19110;DHT22;9687;50.836;12.060;2024-02-21T06:09:19;10.00;84.40
19110;DHT22;9687;50.836;12.060;2024-02-21T06:11:46;10.00;84.30
19110;DHT22;9687;50.836;12.060;2024-02-21T06:14:14;10.00;84.30
19110;DHT22;9687;50.836;12.060;2024-02-21T06:16:43;10.00;84.40
19110;DHT22;9687;50.836;12.060;2024-02-21T06:19:11;10.00;84.40
19110;DHT22;9687;50.836;12.060;2024-02-21T06:21:39;10.00;84.50
19110;DHT22;9687;50.836;12.060;2024-02-21T06:24:06;9.90;85.60
19110;DHT22;9687;50.836;12.060;2024-02-21T06:26:35;9.90;85.70
19110;DHT22;9687;50.836;12.060;2024-02-21T06:29:03;9.90;85.90
19110;DHT22;9687;50.836;12.060;2024-02-21T06:31:31;9.90;86.00
19110;DHT22;9687;50.836;12.060;2024-02-21T06:33:58;9.90;86.10
19110;DHT22;9687;50.836;12.060;2024-02-21T06:36:25;9.90;86.20
19110;DHT22;9687;50.836;12.060;2024-02-21T06:38:53;9.90;86.40
19110;DHT22;9687;50.836;12.060;2024-02-21T06:41:21;9.90;86.30
19110;DHT22;9687;50.836;12.060;2024-02-21T06:43:50;9.90;86.40
19110;DHT22;9687;50.836;12.060;2024-02-21T06:46:27;9.90;86.40
19110;DHT22;9687;50.836;12.060;2024-02-21T06:48:55;9.90;86.50
19110;DHT22;9687;50.836;12.060;2024-02-21T06:51:23;10.10;85.50
19110;DHT22;9687;50.836;12.060;2024-02-21T06:53:52;10.00;85.40
19110;DHT22;9687;50.836;12.060;2024-02-21T06:56:20;9.80;86.30
19110;DHT22;9687;50.836;12.060;2024-02-21T06:58:48;10.00;85.30
19110;DHT22;9687;50.836;12.060;2024-02-21T07:01:19;10.00;85.30
19110;DHT22;9687;50.836;12.060;2024-02-21T07:03:46;10.10;85.40
19110;DHT22;9687;50.836;12.060;2024-02-21T07:06:13;9.90;86.30
19110;DHT22;9687;50.836;12.060;2024-02-21T07:08:40;10.20;85.50
19110;DHT22;9687;50.836;12.060;2024-02-21T07:11:08;10.20;85.50
19110;DHT22;9687;50.836;12.060;2024-02-21T07:13:36;10.30;85.60
19110;DHT22;9687;50.836;12.060;2024-02-21T07:16:03;10.40;85.70
19110;DHT22;9687;50.836;12.060;2024-02-21T07:18:32;10.60;85.70
19110;DHT22;9687;50.836;12.060;2024-02-21T07:20:59;10.60;85.60
19110;DHT22;9687;50.836;12.060;2024-02-21T07:23:27;10.70;85.30
19110;DHT22;9687;50.836;12.060;2024-02-21T07:25:56;10.70;85.00
19110;DHT22;9687;50.836;12.060;2024-02-21T07:28:26;10.80;84.90
19110;DHT22;9687;50.836;12.060;2024-02-21T07:30:54;10.70;84.50
19110;DHT22;9687;50.836;12.060;2024-02-21T07:33:22;10.70;84.40
19110;DHT22;9687;50.836;12.060;2024-02-21T07:35:53;10.70;84.40
19110;DHT22;9687;50.836;12.060;2024-02-21T07:38:22;10.70;84.40
19110;DHT22;9687;50.836;12.060;2024-02-21T07:40:49;10.70;84.20
19110;DHT22;9687;50.836;12.060;2024-02-21T07:43:17;10.80;84.20
19110;DHT22;9687;50.836;12.060;2024-02-21T07:45:44;10.70;84.00
19110;DHT22;9687;50.836;12.060;2024-02-21T07:48:11;10.70;84.00
19110;DHT22;9687;50.836;12.060;2024-02-21T07:50:38;10.70;83.90
19110;DHT22;9687;50.836;12.060;2024-02-21T07:53:07;10.70;83.90
19110;DHT22;9687;50.836;12.060;2024-02-21T07:55:35;10.70;83.90
19110;DHT22;9687;50.836;12.060;2024-02-21T07:58:02;10.70;83.90
19110;DHT22;9687;50.836;12.060;2024-02-21T08:00:29;10.80;84.00
19110;DHT22;9687;50.836;12.060;2024-02-21T08:02:57;10.80;84.00
19110;DHT22;9687;50.836;12.060;2024-02-21T08:05:24;10.90;83.80
19110;DHT22;9687;50.836;12.060;2024-02-21T08:07:51;10.90;83.70
19110;DHT22;9687;50.836;12.060;2024-02-21T08:10:20;10.90;83.60
19110;DHT22;9687;50.836;12.060;2024-02-21T08:12:49;10.90;83.40
19110;DHT22;9687;50.836;12.060;2024-02-21T08:15:16;11.00;84.40
19110;DHT22;9687;50.836;12.060;2024-02-21T09:27:31;11.00;87.60
19110;DHT22;9687;50.836;12.060;2024-02-21T09:29:59;9.80;88.90
19110;DHT22;9687;50.836;12.060;2024-02-21T09:32:27;10.00;87.30
19110;DHT22;9687;50.836;12.060;2024-02-21T09:34:55;10.10;86.90
19110;DHT22;9687;50.836;12.060;2024-02-21T09:37:23;10.30;86.70
19110;DHT22;9687;50.836;12.060;2024-02-21T09:39:51;10.40;86.50
19110;DHT22;9687;50.836;12.060;2024-02-21T09:42:28;10.50;86.20
19110;DHT22;9687;50.836;12.060;2024-02-21T09:45:07;10.60;86.10
19110;DHT22;9687;50.836;12.060;2024-02-21T09:47:40;10.80;86.10
19110;DHT22;9687;50.836;12.060;2024-02-21T09:50:14;10.90;86.00
19110;DHT22;9687;50.836;12.060;2024-02-21T09:52:42;11.00;85.80
19110;DHT22;9687;50.836;12.060;2024-02-21T09:55:10;11.10;85.60
19110;DHT22;9687;50.836;12.060;2024-02-21T09:57:40;11.20;85.60
19110;DHT22;9687;50.836;12.060;2024-02-21T10:00:13;11.30;85.40
19110;DHT22;9687;50.836;12.060;2024-02-21T10:02:50;11.40;85.20
19110;DHT22;9687;50.836;12.060;2024-02-21T10:05:22;11.50;85.10
19110;DHT22;9687;50.836;12.060;2024-02-21T10:07:53;11.60;85.00
19110;DHT22;9687;50.836;12.060;2024-02-21T10:10:21;11.70;85.00
19110;DHT22;9687;50.836;12.060;2024-02-21T10:12:50;11.70;84.80
19110;DHT22;9687;50.836;12.060;2024-02-21T10:15:23;11.80;84.60
19110;DHT22;9687;50.836;12.060;2024-02-21T10:17:57;11.90;84.80
19110;DHT22;9687;50.836;12.060;2024-02-21T10:20:31;12.20;85.20
19110;DHT22;9687;50.836;12.060;2024-02-21T10:23:01;12.50;85.50
19110;DHT22;9687;50.836;12.060;2024-02-21T10:25:30;12.90;84.80
19110;DHT22;9687;50.836;12.060;2024-02-21T10:27:57;13.30;84.10
19110;DHT22;9687;50.836;12.060;2024-02-21T10:30:27;13.70;83.70
19110;DHT22;9687;50.836;12.060;2024-02-21T10:32:54;14.00;83.00
19110;DHT22;9687;50.836;12.060;2024-02-21T10:35:25;14.30;82.60
19110;DHT22;9687;50.836;12.060;2024-02-21T10:37:52;14.60;81.60
19110;DHT22;9687;50.836;12.060;2024-02-21T10:40:22;14.70;80.40
19110;DHT22;9687;50.836;12.060;2024-02-21T10:42:50;14.80;79.80
19110;DHT22;9687;50.836;12.060;2024-02-21T10:45:29;14.90;79.60
19110;DHT22;9687;50.836;12.060;2024-02-21T10:48:01;15.00;79.70
19110;DHT22;9687;50.836;12.060;2024-02-21T10:50:30;15.10;79.50
19110;DHT22;9687;50.836;12.060;2024-02-21T10:53:01;15.40;79.60
19110;DHT22;9687;50.836;12.060;2024-02-21T10:55:31;15.70;79.00
19110;DHT22;9687;50.836;12.060;2024-02-21T10:58:00;15.80;77.10
19110;DHT22;9687;50.836;12.060;2024-02-21T11:00:29;16.00;76.80
19110;DHT22;9687;50.836;12.060;2024-02-21T11:02:57;16.10;76.30
19110;DHT22;9687;50.836;12.060;2024-02-21T11:05:25;16.10;75.90
19110;DHT22;9687;50.836;12.060;2024-02-21T11:07:54;16.10;75.20
19110;DHT22;9687;50.836;12.060;2024-02-21T11:10:23;16.00;74.60
19110;DHT22;9687;50.836;12.060;2024-02-21T11:12:52;16.00;73.70
19110;DHT22;9687;50.836;12.060;2024-02-21T11:15:24;15.70;73.90
19110;DHT22;9687;50.836;12.060;2024-02-21T11:17:57;15.60;74.40
19110;DHT22;9687;50.836;12.060;2024-02-21T11:20:31;15.50;73.90
19110;DHT22;9687;50.836;12.060;2024-02-21T11:22:59;15.50;74.10
19110;DHT22;9687;50.836;12.060;2024-02-21T11:25:27;15.70;74.80
19110;DHT22;9687;50.836;12.060;2024-02-21T11:28:00;15.80;74.50
19110;DHT22;9687;50.836;12.060;2024-02-21T11:30:27;16.00;74.10
19110;DHT22;9687;50.836;12.060;2024-02-21T11:33:00;16.10;73.90
19110;DHT22;9687;50.836;12.060;2024-02-21T11:35:30;16.40;73.50
19110;DHT22;9687;50.836;12.060;2024-02-21T11:38:07;16.40;72.60
19110;DHT22;9687;50.836;12.060;2024-02-21T11:40:34;16.50;72.30
19110;DHT22;9687;50.836;12.060;2024-02-21T11:43:02;16.60;72.20
19110;DHT22;9687;50.836;12.060;2024-02-21T11:45:30;16.60;71.10
19110;DHT22;9687;50.836;12.060;2024-02-21T11:48:02;16.70;70.80
19110;DHT22;9687;50.836;12.060;2024-02-21T11:50:31;16.60;69.70
19110;DHT22;9687;50.836;12.060;2024-02-21T11:53:00;16.50;70.20
19110;DHT22;9687;50.836;12.060;2024-02-21T11:55:27;16.40;69.40
19110;DHT22;9687;50.836;12.060;2024-02-21T11:57:55;16.30;69.40
19110;DHT22;9687;50.836;12.060;2024-02-21T12:00:25;16.30;69.80
19110;DHT22;9687;50.836;12.060;2024-02-21T12:02:56;16.20;68.60
19110;DHT22;9687;50.836;12.060;2024-02-21T12:05:30;16.20;68.30
19110;DHT22;9687;50.836;12.060;2024-02-21T12:07:59;16.10;68.20
19110;DHT22;9687;50.836;12.060;2024-02-21T12:10:28;16.00;68.70
19110;DHT22;9687;50.836;12.060;2024-02-21T12:13:06;16.00;69.10
19110;DHT22;9687;50.836;12.060;2024-02-21T12:15:35;16.10;69.20
19110;DHT22;9687;50.836;12.060;2024-02-21T12:18:02;16.20;69.10
19110;DHT22;9687;50.836;12.060;2024-02-21T12:20:32;16.20;68.50
19110;DHT22;9687;50.836;12.060;2024-02-21T12:23:00;16.20;68.50
19110;DHT22;9687;50.836;12.060;2024-02-21T12:25:27;16.20;67.60
19110;DHT22;9687;50.836;12.060;2024-02-21T12:27:55;16.20;66.60
19110;DHT22;9687;50.836;12.060;2024-02-21T12:30:24;16.10;66.10
19110;DHT22;9687;50.836;12.060;2024-02-21T12:32:52;16.00;66.30
19110;DHT22;9687;50.836;12.060;2024-02-21T12:35:19;15.90;65.40
19110;DHT22;9687;50.836;12.060;2024-02-21T12:37:49;15.90;65.20
19110;DHT22;9687;50.836;12.060;2024-02-21T12:40:16;15.80;65.70
19110;DHT22;9687;50.836;12.060;2024-02-21T12:42:44;15.80;64.90
19110;DHT22;9687;50.836;12.060;2024-02-21T12:45:11;15.80;65.30
19110;DHT22;9687;50.836;12.060;2024-02-21T12:47:38;15.80;65.10
19110;DHT22;9687;50.836;12.060;2024-02-21T12:50:06;15.80;64.90
19110;DHT22;9687;50.836;12.060;2024-02-21T12:52:33;15.80;64.80
19110;DHT22;9687;50.836;12.060;2024-02-21T12:55:03;15.80;64.50
19110;DHT22;9687;50.836;12.060;2024-02-21T12:57:31;15.70;64.40
19110;DHT22;9687;50.836;12.060;2024-02-21T13:00:02;15.70;64.40
19110;DHT22;9687;50.836;12.060;2024-02-21T13:02:31;15.60;64.80
19110;DHT22;9687;50.836;12.060;2024-02-21T13:04:58;15.60;64.80
19110;DHT22;9687;50.836;12.060;2024-02-21T13:07:27;15.60;64.50
19110;DHT22;9687;50.836;12.060;2024-02-21T13:09:55;15.60;64.30
19110;DHT22;9687;50.836;12.060;2024-02-21T13:12:23;15.60;64.40
19110;DHT22;9687;50.836;12.060;2024-02-21T13:14:53;15.60;64.30
19110;DHT22;9687;50.836;12.060;2024-02-21T13:17:20;15.60;64.20
19110;DHT22;9687;50.836;12.060;2024-02-21T13:19:48;15.50;64.10
19110;DHT22;9687;50.836;12.060;2024-02-21T13:22:15;15.50;63.60
19110;DHT22;9687;50.836;12.060;2024-02-21T13:24:43;15.50;64.10
19110;DHT22;9687;50.836;12.060;2024-02-21T13:27:10;15.50;64.10
19110;DHT22;9687;50.836;12.060;2024-02-21T13:29:40;15.40;64.00
19110;DHT22;9687;50.836;12.060;2024-02-21T13:32:07;15.40;63.30
19110;DHT22;9687;50.836;12.060;2024-02-21T13:34:35;15.30;63.50
19110;DHT22;9687;50.836;12.060;2024-02-21T13:37:04;15.30;63.90
19110;DHT22;9687;50.836;12.060;2024-02-21T13:39:32;15.20;63.30
19110;DHT22;9687;50.836;12.060;2024-02-21T13:42:03;15.20;62.90
19110;DHT22;9687;50.836;12.060;2024-02-21T13:44:31;15.10;63.30
19110;DHT22;9687;50.836;12.060;2024-02-21T13:47:00;15.10;63.30
19110;DHT22;9687;50.836;12.060;2024-02-21T13:49:28;15.00;63.60
19110;DHT22;9687;50.836;12.060;2024-02-21T13:51:56;15.00;63.60
19110;DHT22;9687;50.836;12.060;2024-02-21T13:54:24;15.00;63.60
19110;DHT22;9687;50.836;12.060;2024-02-21T13:56:51;14.80;63.40
19110;DHT22;9687;50.836;12.060;2024-02-21T13:59:18;14.90;63.50
19110;DHT22;9687;50.836;12.060;2024-02-21T14:01:46;14.90;63.40
19110;DHT22;9687;50.836;12.060;2024-02-21T14:04:15;14.80;63.10
19110;DHT22;9687;50.836;12.060;2024-02-21T14:06:42;14.80;63.40
19110;DHT22;9687;50.836;12.060;2024-02-21T14:09:09;14.80;63.20
19110;DHT22;9687;50.836;12.060;2024-02-21T14:11:36;14.70;62.90
19110;DHT22;9687;50.836;12.060;2024-02-21T14:14:05;14.70;62.80
19110;DHT22;9687;50.836;12.060;2024-02-21T14:16:33;14.60;63.20
19110;DHT22;9687;50.836;12.060;2024-02-21T14:19:00;14.60;63.20
19110;DHT22;9687;50.836;12.060;2024-02-21T14:21:29;14.60;63.20
19110;DHT22;9687;50.836;12.060;2024-02-21T14:23:57;14.60;63.20
19110;DHT22;9687;50.836;12.060;2024-02-21T14:26:27;14.50;63.10
19110;DHT22;9687;50.836;12.060;2024-02-21T14:28:56;14.50;63.10
19110;DHT22;9687;50.836;12.060;2024-02-21T14:31:24;14.50;63.10
19110;DHT22;9687;50.836;12.060;2024-02-21T14:33:53;14.40;63.00
19110;DHT22;9687;50.836;12.060;2024-02-21T14:36:20;14.40;63.00
19110;DHT22;9687;50.836;12.060;2024-02-21T14:38:51;14.40;63.00
19110;DHT22;9687;50.836;12.060;2024-02-21T14:41:18;14.40;63.00
19110;DHT22;9687;50.836;12.060;2024-02-21T14:43:46;14.40;63.40
19110;DHT22;9687;50.836;12.060;2024-02-21T14:46:13;14.40;64.00
19110;DHT22;9687;50.836;12.060;2024-02-21T14:48:40;14.30;63.40
19110;DHT22;9687;50.836;12.060;2024-02-21T14:51:08;14.30;63.60
19110;DHT22;9687;50.836;12.060;2024-02-21T14:53:36;14.30;64.00
19110;DHT22;9687;50.836;12.060;2024-02-21T14:56:05;14.30;63.50
19110;DHT22;9687;50.836;12.060;2024-02-21T14:58:39;14.20;63.00
19110;DHT22;9687;50.836;12.060;2024-02-21T15:01:06;14.20;63.40
19110;DHT22;9687;50.836;12.060;2024-02-21T15:03:34;14.20;63.60
19110;DHT22;9687;50.836;12.060;2024-02-21T15:06:01;14.10;63.70
19110;DHT22;9687;50.836;12.060;2024-02-21T15:08:29;14.10;63.80
19110;DHT22;9687;50.836;12.060;2024-02-21T15:10:56;14.20;64.10
19110;DHT22;9687;50.836;12.060;2024-02-21T15:13:25;14.10;64.00
19110;DHT22;9687;50.836;12.060;2024-02-21T15:15:52;14.10;64.10
19110;DHT22;9687;50.836;12.060;2024-02-21T15:18:20;14.10;64.10
19110;DHT22;9687;50.836;12.060;2024-02-21T15:20:48;14.00;64.10
19110;DHT22;9687;50.836;12.060;2024-02-21T15:23:15;14.00;63.70
19110;DHT22;9687;50.836;12.060;2024-02-21T15:25:44;13.90;63.90
19110;DHT22;9687;50.836;12.060;2024-02-21T15:28:12;13.90;63.70
19110;DHT22;9687;50.836;12.060;2024-02-21T15:30:40;13.80;64.00
19110;DHT22;9687;50.836;12.060;2024-02-21T15:33:08;13.90;64.10
19110;DHT22;9687;50.836;12.060;2024-02-21T15:35:35;13.80;64.00
19110;DHT22;9687;50.836;12.060;2024-02-21T15:38:02;13.70;64.00
19110;DHT22;9687;50.836;12.060;2024-02-21T15:40:30;13.70;64.10
19110;DHT22;9687;50.836;12.060;2024-02-21T15:43:01;13.60;64.20
19110;DHT22;9687;50.836;12.060;2024-02-21T15:45:28;13.60;64.30
19110;DHT22;9687;50.836;12.060;2024-02-21T15:47:58;13.60;64.40
19110;DHT22;9687;50.836;12.060;2024-02-21T15:50:25;13.50;64.50
19110;DHT22;9687;50.836;12.060;2024-02-21T15:52:54;13.50;64.60
19110;DHT22;9687;50.836;12.060;2024-02-21T15:55:23;13.40;64.50
19110;DHT22;9687;50.836;12.060;2024-02-21T15:57:50;13.40;64.80
19110;DHT22;9687;50.836;12.060;2024-02-21T16:00:18;13.40;64.70
19110;DHT22;9687;50.836;12.060;2024-02-21T16:02:45;13.30;64.70
19110;DHT22;9687;50.836;12.060;2024-02-21T16:05:14;13.20;64.70
19110;DHT22;9687;50.836;12.060;2024-02-21T16:07:42;13.20;64.80
19110;DHT22;9687;50.836;12.060;2024-02-21T16:10:13;13.10;64.90
19110;DHT22;9687;50.836;12.060;2024-02-21T16:12:40;13.10;65.10
19110;DHT22;9687;50.836;12.060;2024-02-21T16:15:08;13.00;65.00
19110;DHT22;9687;50.836;12.060;2024-02-21T16:17:36;13.00;65.20
19110;DHT22;9687;50.836;12.060;2024-02-21T16:20:05;13.00;65.30
19110;DHT22;9687;50.836;12.060;2024-02-21T16:22:36;13.00;65.30
19110;DHT22;9687;50.836;12.060;2024-02-21T16:25:03;12.90;65.50
19110;DHT22;9687;50.836;12.060;2024-02-21T16:27:32;12.90;65.60
19110;DHT22;9687;50.836;12.060;2024-02-21T16:30:00;12.90;65.70
19110;DHT22;9687;50.836;12.060;2024-02-21T16:32:27;12.90;65.70
19110;DHT22;9687;50.836;12.060;2024-02-21T16:34:54;12.80;65.70
19110;DHT22;9687;50.836;12.060;2024-02-21T16:37:22;12.80;65.80
19110;DHT22;9687;50.836;12.060;2024-02-21T16:39:50;12.90;66.00
19110;DHT22;9687;50.836;12.060;2024-02-21T16:42:18;12.80;66.00
19110;DHT22;9687;50.836;12.060;2024-02-21T16:44:45;12.80;66.20
19110;DHT22;9687;50.836;12.060;2024-02-21T16:47:15;12.80;66.30
19110;DHT22;9687;50.836;12.060;2024-02-21T16:49:44;12.80;66.40